createdAt,value
2019-02-10T00:00:38.884Z,79.47
2019-02-10T00:03:07.114Z,79.42
2019-02-10T00:05:35.360Z,80.11
2019-02-10T00:08:03.585Z,79.96
2019-02-10T00:10:31.819Z,79.93
2019-02-10T00:13:22.310Z,79.83
2019-02-10T00:15:50.793Z,79.59
2019-02-10T00:18:19.329Z,79.53
2019-02-10T00:20:47.798Z,79.50
2019-02-10T00:23:16.257Z,79.60
2019-02-10T00:25:44.504Z,80.20
2019-02-10T00:28:12.963Z,80.32
2019-02-10T00:30:41.206Z,79.92
2019-02-10T00:33:09.676Z,80.14
2019-02-10T00:35:37.901Z,81.02
2019-02-10T00:38:06.143Z,81.86
2019-02-10T00:40:34.373Z,81.78
2019-02-10T00:43:02.850Z,80.85
2019-02-10T00:45:31.087Z,80.64
2019-02-10T00:47:59.568Z,81.70
2019-02-10T00:50:27.803Z,80.92
2019-02-10T00:52:56.050Z,81.23
2019-02-10T00:55:24.518Z,81.40
2019-02-10T00:57:52.763Z,83.20
2019-02-10T01:00:20.989Z,82.31
2019-02-10T01:02:49.231Z,82.44
2019-02-10T01:05:17.466Z,82.45
2019-02-10T01:07:45.708Z,83.12
2019-02-10T01:10:14.439Z,83.13
2019-02-10T01:12:42.678Z,82.44
2019-02-10T01:15:10.911Z,82.43
2019-02-10T01:17:39.146Z,82.28
2019-02-10T01:20:09.206Z,82.41
2019-02-10T01:22:37.398Z,82.33
2019-02-10T01:25:07.366Z,82.45
2019-02-10T01:27:35.606Z,81.93
2019-02-10T01:30:05.749Z,81.59
2019-02-10T01:32:34.222Z,82.03
2019-02-10T01:35:02.451Z,81.61
2019-02-10T01:37:30.682Z,81.50
2019-02-10T01:39:58.922Z,81.55
2019-02-10T01:42:27.150Z,81.42
2019-02-10T01:44:55.389Z,81.41
2019-02-10T01:47:23.617Z,81.43
2019-02-10T01:49:52.091Z,81.43
2019-02-10T01:52:20.548Z,81.57
2019-02-10T01:54:49.057Z,81.49
2019-02-10T01:57:17.311Z,81.50
2019-02-10T01:59:45.761Z,81.21
2019-02-10T02:02:14.000Z,81.36
2019-02-10T02:04:42.244Z,81.18
2019-02-10T02:07:10.476Z,81.20
2019-02-10T02:09:38.941Z,81.09
2019-02-10T02:12:07.183Z,80.93
2019-02-10T02:14:35.419Z,81.18
2019-02-10T02:17:03.649Z,81.11
2019-02-10T02:19:31.883Z,81.02
2019-02-10T02:22:00.114Z,81.11
2019-02-10T02:24:28.351Z,81.07
2019-02-10T02:26:56.588Z,81.04
2019-02-10T02:29:24.827Z,81.08
2019-02-10T02:31:53.076Z,81.14
2019-02-10T02:34:21.303Z,81.26
2019-02-10T02:36:49.536Z,81.25
2019-02-10T02:39:18.007Z,81.09
2019-02-10T02:41:46.234Z,81.14
2019-02-10T02:44:14.474Z,80.96
2019-02-10T02:46:42.707Z,80.83
2019-02-10T02:49:10.943Z,80.72
2019-02-10T02:51:39.179Z,80.83
2019-02-10T02:54:07.413Z,81.59
2019-02-10T02:56:35.647Z,81.38
2019-02-10T02:59:03.879Z,81.33
2019-02-10T03:01:32.123Z,81.62
2019-02-10T03:04:00.355Z,81.75
2019-02-10T03:06:30.227Z,81.70
2019-02-10T03:08:58.464Z,81.56
2019-02-10T03:11:26.728Z,81.49
2019-02-10T03:13:54.934Z,81.33
2019-02-10T03:16:23.179Z,81.27
2019-02-10T03:18:53.194Z,81.18
2019-02-10T03:21:21.378Z,81.60
2019-02-10T03:23:49.613Z,81.21
2019-02-10T03:26:17.853Z,81.09
2019-02-10T03:28:46.091Z,81.30
2019-02-10T03:31:14.336Z,81.14
2019-02-10T03:33:42.566Z,81.06
2019-02-10T03:36:10.809Z,81.22
2019-02-10T03:38:39.049Z,80.94
2019-02-10T03:41:07.279Z,81.00
2019-02-10T03:43:35.518Z,81.01
2019-02-10T03:46:03.757Z,81.22
2019-02-10T03:48:31.982Z,81.12
2019-02-10T03:51:00.230Z,81.27
2019-02-10T03:53:28.720Z,81.65
2019-02-10T03:55:56.966Z,81.86
2019-02-10T03:58:25.203Z,82.03
2019-02-10T04:00:53.467Z,81.86
2019-02-10T04:03:21.681Z,81.71
2019-02-10T04:05:49.923Z,82.08
2019-02-10T04:08:18.156Z,82.57
2019-02-10T04:10:46.398Z,82.23
2019-02-10T04:13:14.635Z,82.71
2019-02-10T04:15:42.938Z,82.52
2019-02-10T04:18:11.179Z,82.29
2019-02-10T04:20:39.408Z,82.24
2019-02-10T04:23:09.326Z,82.47
2019-02-10T04:25:37.548Z,83.24
2019-02-10T04:28:05.787Z,83.05
2019-02-10T04:30:34.028Z,82.74
2019-02-10T04:33:02.267Z,84.36
2019-02-10T04:35:30.493Z,84.45
2019-02-10T04:37:58.729Z,84.62
2019-02-10T04:40:27.219Z,83.48
2019-02-10T04:42:55.525Z,84.68
2019-02-10T04:45:23.695Z,84.46
2019-02-10T04:47:51.933Z,84.74
2019-02-10T04:50:20.171Z,84.80
2019-02-10T04:52:48.406Z,84.51
2019-02-10T04:55:16.634Z,85.21
2019-02-10T04:57:44.889Z,84.87
2019-02-10T05:00:13.110Z,85.55
2019-02-10T05:02:41.365Z,86.02
2019-02-10T05:05:09.656Z,86.12
2019-02-10T05:07:38.172Z,85.71
2019-02-10T05:10:07.055Z,85.86
2019-02-10T05:12:35.299Z,86.08
2019-02-10T05:15:03.892Z,86.50
2019-02-10T05:17:32.138Z,86.48
2019-02-10T05:20:00.365Z,86.50
2019-02-10T05:22:28.831Z,86.42
2019-02-10T05:24:57.068Z,86.74
2019-02-10T05:27:25.305Z,86.66
2019-02-10T05:29:53.536Z,86.61
2019-02-10T05:32:21.773Z,86.75
2019-02-10T05:34:50.003Z,86.83
2019-02-10T05:37:18.289Z,86.57
2019-02-10T05:39:46.755Z,86.82
2019-02-10T05:42:14.983Z,87.03
2019-02-10T05:44:43.452Z,86.97
2019-02-10T05:47:11.681Z,87.23
2019-02-10T05:49:39.922Z,87.25
2019-02-10T05:52:08.150Z,86.83
2019-02-10T05:54:36.388Z,87.39
2019-02-10T05:57:04.618Z,87.51
2019-02-10T05:59:32.858Z,87.44
2019-02-10T06:02:03.959Z,87.65
2019-02-10T06:04:35.103Z,88.03
2019-02-10T06:07:06.508Z,87.98
2019-02-10T06:09:34.748Z,87.62
2019-02-10T06:12:02.980Z,87.99
2019-02-10T06:14:31.217Z,87.93
2019-02-10T06:16:59.457Z,87.96
2019-02-10T06:19:27.923Z,88.08
2019-02-10T06:21:56.152Z,87.94
2019-02-10T06:24:24.395Z,88.34
2019-02-10T06:26:52.618Z,88.38
2019-02-10T06:29:20.864Z,88.37
2019-02-10T06:31:49.084Z,88.41
2019-02-10T06:34:17.330Z,88.50
2019-02-10T06:36:45.803Z,88.95
2019-02-10T06:39:14.047Z,88.41
2019-02-10T06:41:42.501Z,88.18
2019-02-10T06:44:10.973Z,88.67
2019-02-10T06:46:39.208Z,88.78
2019-02-10T06:49:07.678Z,88.56
2019-02-10T06:51:36.725Z,88.63
2019-02-10T06:54:04.954Z,88.73
2019-02-10T06:56:33.189Z,88.51
2019-02-10T06:59:01.651Z,88.81
2019-02-10T07:01:37.552Z,88.62
2019-02-10T07:04:09.408Z,88.64
2019-02-10T07:06:37.650Z,89.10
2019-02-10T07:09:06.623Z,89.05
2019-02-10T07:11:34.867Z,88.73
2019-02-10T07:14:03.102Z,88.97
2019-02-10T07:16:46.939Z,88.86
2019-02-10T07:19:51.827Z,88.95
2019-02-10T07:22:43.235Z,89.24
2019-02-10T07:25:17.604Z,89.11
2019-02-10T07:27:51.167Z,88.87
2019-02-10T07:30:37.323Z,89.19
2019-02-10T07:33:08.103Z,89.18
2019-02-10T07:36:00.937Z,88.92
2019-02-10T07:38:47.432Z,89.16
2019-02-10T07:41:18.841Z,88.88
2019-02-10T07:43:59.115Z,88.87
2019-02-10T07:46:47.144Z,88.98
2019-02-10T07:49:34.800Z,89.05
2019-02-10T07:52:12.107Z,88.96
2019-02-10T07:54:55.329Z,89.00
2019-02-10T07:57:45.807Z,88.87
2019-02-10T08:00:17.223Z,88.95
2019-02-10T08:02:48.625Z,88.56
2019-02-10T08:05:37.895Z,89.10
2019-02-10T08:08:46.596Z,89.24
2019-02-10T08:11:27.207Z,88.97
2019-02-10T08:14:13.573Z,89.04
2019-02-10T08:16:48.070Z,89.09
2019-02-10T08:19:52.298Z,89.22
2019-02-10T08:22:47.702Z,89.16
2019-02-10T08:25:34.113Z,89.23
2019-02-10T08:28:17.185Z,89.47
2019-02-10T08:30:51.748Z,89.21
2019-02-10T08:33:23.171Z,89.73
2019-02-10T08:36:18.517Z,89.45
2019-02-10T08:38:54.560Z,89.30
2019-02-10T08:41:28.890Z,89.43
2019-02-10T08:44:12.451Z,89.29
2019-02-10T08:46:49.550Z,89.01
2019-02-10T08:49:23.659Z,88.93
2019-02-10T08:51:57.763Z,88.70
2019-02-10T08:54:26.077Z,88.45
2019-02-10T08:56:54.305Z,88.44
2019-02-10T08:59:22.539Z,88.38
2019-02-10T09:01:51.061Z,88.53
2019-02-10T09:04:19.527Z,88.53
2019-02-10T09:06:47.760Z,88.57
2019-02-10T09:09:16.006Z,88.46
2019-02-10T09:11:44.235Z,88.47
2019-02-10T09:14:12.703Z,88.37
2019-02-10T09:16:41.160Z,88.38
2019-02-10T09:19:09.634Z,88.43
2019-02-10T09:21:37.872Z,88.08
2019-02-10T09:24:06.114Z,88.06
2019-02-10T09:26:34.581Z,88.11
2019-02-10T09:29:02.821Z,88.26
2019-02-10T09:31:33.099Z,88.31
2019-02-10T09:34:01.408Z,88.19
2019-02-10T09:36:29.648Z,88.38
2019-02-10T09:38:58.127Z,88.14
2019-02-10T09:41:26.358Z,88.26
2019-02-10T09:43:54.592Z,88.66
2019-02-10T09:46:23.059Z,88.68
2019-02-10T09:48:51.300Z,88.45
2019-02-10T09:51:19.535Z,88.38
2019-02-10T09:53:47.762Z,88.31
2019-02-10T09:56:16.247Z,88.25
2019-02-10T09:58:47.261Z,88.59
2019-02-10T10:01:15.489Z,88.11
2019-02-10T10:03:43.731Z,88.19
2019-02-10T10:06:11.966Z,88.23
2019-02-10T10:08:40.442Z,88.62
2019-02-10T10:11:08.684Z,88.82
2019-02-10T10:13:36.924Z,88.96
2019-02-10T10:16:05.151Z,88.51
2019-02-10T10:18:33.390Z,88.76
2019-02-10T10:21:01.632Z,88.89
2019-02-10T10:23:29.906Z,88.99
2019-02-10T10:25:58.140Z,89.06
2019-02-10T10:28:26.377Z,89.25
2019-02-10T10:30:54.619Z,89.17
2019-02-10T10:33:22.851Z,89.18
2019-02-10T10:35:51.100Z,89.27
2019-02-10T10:38:19.565Z,89.38
2019-02-10T10:40:48.036Z,89.28
2019-02-10T10:43:16.265Z,90.14
2019-02-10T10:45:44.762Z,89.36
2019-02-10T10:48:12.995Z,89.53
2019-02-10T10:50:41.469Z,89.50
2019-02-10T10:53:09.938Z,89.82
2019-02-10T10:55:38.176Z,89.73
2019-02-10T10:58:06.633Z,89.94
2019-02-10T11:00:35.107Z,90.01
2019-02-10T11:03:03.345Z,90.04
2019-02-10T11:05:31.813Z,90.17
2019-02-10T11:08:00.046Z,90.27
2019-02-10T11:10:28.291Z,90.60
2019-02-10T11:12:56.523Z,90.30
2019-02-10T11:15:24.761Z,90.24
2019-02-10T11:17:52.990Z,90.39
2019-02-10T11:20:21.458Z,90.63
2019-02-10T11:22:49.690Z,90.65
2019-02-10T11:25:17.931Z,90.70
2019-02-10T11:27:46.390Z,90.77
2019-02-10T11:30:17.567Z,90.68
2019-02-10T11:32:46.028Z,90.64
2019-02-10T11:35:14.275Z,90.66
2019-02-10T11:37:42.507Z,90.67
2019-02-10T11:40:11.918Z,90.38
2019-02-10T11:42:40.148Z,90.99
2019-02-10T11:45:10.920Z,90.91
2019-02-10T11:47:39.234Z,90.82
2019-02-10T11:50:14.082Z,90.78
2019-02-10T11:52:42.320Z,90.89
2019-02-10T11:55:11.216Z,91.41
2019-02-10T11:57:39.684Z,91.08
2019-02-10T12:00:11.092Z,91.69
2019-02-10T12:02:39.332Z,91.72
2019-02-10T12:05:09.698Z,91.33
2019-02-10T12:07:37.933Z,91.24
2019-02-10T12:10:11.795Z,91.76
2019-02-10T12:12:40.262Z,91.59
2019-02-10T12:15:11.965Z,91.19
2019-02-10T12:17:40.204Z,91.50
2019-02-10T12:20:13.375Z,92.23
2019-02-10T12:22:49.663Z,92.26
2019-02-10T12:25:11.638Z,92.39
2019-02-10T12:27:39.877Z,91.99
2019-02-10T12:30:15.781Z,92.12
2019-02-10T12:32:44.021Z,92.48
2019-02-10T12:35:12.524Z,91.63
2019-02-10T12:37:40.769Z,91.12
2019-02-10T12:40:10.470Z,90.96
2019-02-10T12:42:38.939Z,90.85
2019-02-10T12:45:12.089Z,90.71
2019-02-10T12:47:40.568Z,90.04
2019-02-10T12:50:13.365Z,89.99
2019-02-10T12:52:41.601Z,90.00
2019-02-10T12:55:11.229Z,89.96
2019-02-10T12:57:39.572Z,90.51
2019-02-10T13:00:13.418Z,89.94
2019-02-10T13:02:41.654Z,89.74
2019-02-10T13:05:09.949Z,90.21
2019-02-10T13:07:38.188Z,90.53
2019-02-10T13:10:11.792Z,90.35
2019-02-10T13:12:40.270Z,90.40
2019-02-10T13:15:09.939Z,90.43
2019-02-10T13:17:38.184Z,90.54
2019-02-10T13:20:13.929Z,90.62
2019-02-10T13:22:42.144Z,90.42
2019-02-10T13:25:11.518Z,90.82
2019-02-10T13:27:39.817Z,90.68
2019-02-10T13:30:11.304Z,91.03
2019-02-10T13:32:39.528Z,90.52
2019-02-10T13:35:07.763Z,90.29
2019-02-10T13:37:35.989Z,89.82
2019-02-10T13:40:07.678Z,90.01
2019-02-10T13:42:36.135Z,89.79
2019-02-10T13:45:06.736Z,89.82
2019-02-10T13:47:34.965Z,89.60
2019-02-10T13:50:03.607Z,89.01
2019-02-10T13:52:31.838Z,88.72
2019-02-10T13:55:00.248Z,88.00
2019-02-10T13:57:28.502Z,88.24
2019-02-10T13:59:57.041Z,88.04
2019-02-10T14:02:25.270Z,86.70
2019-02-10T14:04:53.781Z,87.01
2019-02-10T14:07:22.239Z,87.10
2019-02-10T14:09:50.479Z,87.09
2019-02-10T14:12:18.723Z,86.76
2019-02-10T14:14:46.979Z,87.62
2019-02-10T14:17:15.471Z,87.42
2019-02-10T14:19:43.712Z,87.08
2019-02-10T14:22:12.180Z,87.30
2019-02-10T14:26:55.051Z,87.89
2019-02-10T14:29:23.549Z,87.76
2019-02-10T14:31:52.009Z,87.28
2019-02-10T14:34:20.247Z,87.55
2019-02-10T14:36:48.726Z,87.22
2019-02-10T14:39:16.932Z,86.03
2019-02-10T14:41:45.200Z,86.51
2019-02-10T14:44:13.438Z,87.02
2019-02-10T14:46:41.899Z,86.68
2019-02-10T14:49:10.377Z,87.34
2019-02-10T14:51:38.605Z,87.14
2019-02-10T14:54:07.069Z,87.25
2019-02-10T14:56:35.303Z,87.55
2019-02-10T14:59:03.544Z,86.84
2019-02-10T15:01:32.019Z,86.69
2019-02-10T15:04:00.485Z,86.70
2019-02-10T15:06:28.944Z,87.35
2019-02-10T15:08:57.188Z,86.29
2019-02-10T15:11:25.415Z,86.21
2019-02-10T15:13:53.642Z,86.17
2019-02-10T15:16:21.879Z,86.57
2019-02-10T15:18:50.108Z,86.21
2019-02-10T15:21:18.348Z,86.04
2019-02-10T15:23:46.582Z,85.28
2019-02-10T15:26:15.050Z,84.93
2019-02-10T15:28:43.275Z,85.40
2019-02-10T15:31:11.755Z,84.90
2019-02-10T15:33:39.984Z,85.15
2019-02-10T15:36:08.444Z,84.82
2019-02-10T15:38:36.723Z,84.91
2019-02-10T15:41:04.914Z,84.90
2019-02-10T15:43:33.143Z,84.35
2019-02-10T15:46:01.608Z,83.89
2019-02-10T15:48:29.840Z,83.99
2019-02-10T15:50:58.336Z,84.01
2019-02-10T15:53:26.584Z,83.08
2019-02-10T15:55:55.030Z,83.10
2019-02-10T15:58:23.490Z,83.27
2019-02-10T16:00:51.965Z,82.55
2019-02-10T16:03:20.191Z,82.41
2019-02-10T16:05:48.661Z,82.35
2019-02-10T16:08:17.115Z,81.83
2019-02-10T16:10:45.366Z,81.21
2019-02-10T16:13:13.590Z,81.58
2019-02-10T16:15:41.833Z,81.60
2019-02-10T16:18:10.294Z,81.61
2019-02-10T16:20:38.524Z,81.39
2019-02-10T16:23:06.752Z,80.95
2019-02-10T16:25:34.988Z,81.16
2019-02-10T16:28:03.279Z,80.58
2019-02-10T16:30:31.511Z,80.25
2019-02-10T16:32:59.734Z,79.94
2019-02-10T16:35:27.971Z,80.62
2019-02-10T16:37:56.199Z,80.18
2019-02-10T16:40:24.440Z,80.46
2019-02-10T16:42:52.676Z,80.38
2019-02-10T16:45:21.139Z,79.55
2019-02-10T16:47:49.374Z,79.97
2019-02-10T16:50:17.977Z,79.83
2019-02-10T16:52:46.433Z,79.50
2019-02-10T16:55:19.634Z,79.94
2019-02-10T16:57:47.911Z,79.80
2019-02-10T17:00:16.776Z,80.28
2019-02-10T17:02:45.312Z,79.72
2019-02-10T17:05:13.835Z,79.95
2019-02-10T17:07:42.073Z,79.75
2019-02-10T17:10:12.838Z,80.19
2019-02-10T17:12:41.077Z,80.14
2019-02-10T17:15:11.253Z,79.31
2019-02-10T17:17:39.503Z,80.07
2019-02-10T17:20:10.070Z,79.81
2019-02-10T17:22:38.295Z,80.36
2019-02-10T17:25:15.312Z,80.12
2019-02-10T17:27:43.572Z,79.92
2019-02-10T17:30:13.941Z,79.88
2019-02-10T17:32:42.174Z,80.27
2019-02-10T17:35:12.262Z,80.55
2019-02-10T17:37:40.546Z,81.27
2019-02-10T17:40:17.634Z,81.50
2019-02-10T17:42:46.153Z,83.06
2019-02-10T17:45:14.375Z,82.81
2019-02-10T17:47:42.907Z,83.32
2019-02-10T17:50:13.040Z,84.15
2019-02-10T17:52:41.276Z,83.13
2019-02-10T17:55:10.293Z,83.79
2019-02-10T17:57:38.576Z,84.14
2019-02-10T18:00:15.176Z,83.95
2019-02-10T18:02:43.737Z,84.05
2019-02-10T18:05:12.001Z,83.57
2019-02-10T18:07:40.235Z,83.23
2019-02-10T18:10:11.503Z,81.93
2019-02-10T18:12:39.745Z,80.44
2019-02-10T18:15:12.669Z,80.26
2019-02-10T18:17:57.877Z,80.43
2019-02-10T18:20:34.003Z,79.52
2019-02-10T18:23:12.296Z,79.05
2019-02-10T18:25:47.858Z,78.16
2019-02-10T18:28:20.381Z,78.81
2019-02-10T18:31:02.192Z,76.96
2019-02-10T18:33:37.941Z,77.68
2019-02-10T18:36:25.744Z,77.46
2019-02-10T18:38:58.542Z,76.62
2019-02-10T18:41:28.442Z,76.50
2019-02-10T18:44:16.175Z,77.23
2019-02-10T18:46:49.213Z,76.29
2019-02-10T18:49:28.083Z,76.94
2019-02-10T18:51:57.948Z,76.63
2019-02-10T18:54:43.740Z,76.57
2019-02-10T18:57:13.594Z,76.41
2019-02-10T18:59:46.475Z,76.75
2019-02-10T19:02:32.578Z,76.70
2019-02-10T19:05:02.515Z,76.44
2019-02-10T19:07:41.366Z,76.84
2019-02-10T19:10:23.136Z,76.83
2019-02-10T19:13:09.527Z,76.72
2019-02-10T19:15:54.916Z,76.28
2019-02-10T19:18:24.805Z,76.76
2019-02-10T19:21:00.151Z,77.27
2019-02-10T19:23:42.054Z,76.32
2019-02-10T19:26:14.634Z,76.34
2019-02-10T19:28:50.219Z,76.69
2019-02-10T19:31:25.545Z,76.84
2019-02-10T19:33:58.401Z,77.00
2019-02-10T19:36:44.512Z,77.32
2019-02-10T19:39:23.421Z,77.95
2019-02-10T19:41:59.495Z,79.09
2019-02-10T19:44:29.613Z,79.12
2019-02-10T19:46:59.491Z,79.58
2019-02-10T19:49:45.647Z,79.18
2019-02-10T19:52:27.803Z,79.18
2019-02-10T19:55:00.201Z,79.85
2019-02-10T19:57:36.203Z,80.43
2019-02-10T20:00:12.246Z,81.79
2019-02-10T20:02:48.151Z,81.99
2019-02-10T20:05:24.239Z,82.07
2019-02-10T20:08:00.314Z,82.20
2019-02-10T20:10:33.094Z,82.06
2019-02-10T20:13:08.631Z,81.65
2019-02-10T20:15:38.506Z,82.02
2019-02-10T20:18:11.124Z,81.80
2019-02-10T20:20:49.940Z,81.97
2019-02-10T20:23:19.795Z,81.84
2019-02-10T20:26:06.156Z,81.92
2019-02-10T20:28:44.731Z,81.78
2019-02-10T20:31:26.666Z,81.75
2019-02-10T20:34:05.896Z,81.76
2019-02-10T20:36:42.080Z,81.54
2019-02-10T20:39:15.101Z,81.97
2019-02-10T20:41:45.216Z,82.12
2019-02-10T20:44:31.389Z,82.18
2019-02-10T20:47:19.251Z,82.65
2019-02-10T20:50:05.048Z,83.40
2019-02-10T20:52:37.621Z,83.24
2019-02-10T20:55:15.134Z,83.86
2019-02-10T20:57:45.238Z,83.58
2019-02-10T21:00:24.860Z,82.63
2019-02-10T21:03:13.171Z,82.22
2019-02-10T21:05:51.958Z,80.29
2019-02-10T21:08:40.285Z,79.44
2019-02-10T21:11:26.612Z,76.10
2019-02-10T21:14:02.451Z,76.93
2019-02-10T21:16:44.633Z,77.13
2019-02-10T21:19:14.503Z,76.82
2019-02-10T21:21:47.364Z,76.54
2019-02-10T21:24:33.505Z,76.86
2019-02-10T21:27:19.507Z,77.26
2019-02-10T21:29:49.626Z,77.14
2019-02-10T21:32:31.820Z,77.04
2019-02-10T21:35:01.690Z,77.79
2019-02-10T21:37:31.590Z,77.49
2019-02-10T21:40:04.415Z,77.78
2019-02-10T21:42:50.758Z,78.18
2019-02-10T21:45:20.627Z,78.69
2019-02-10T21:47:50.508Z,78.82
2019-02-10T21:50:18.741Z,79.25
2019-02-10T21:52:46.982Z,78.80
2019-02-10T21:55:16.546Z,78.87
2019-02-10T21:57:45.159Z,79.21
2019-02-10T22:00:14.327Z,79.07
2019-02-10T22:02:42.562Z,77.92
2019-02-10T22:05:10.785Z,80.11
2019-02-10T22:07:39.021Z,80.23
2019-02-10T22:10:12.090Z,80.34
2019-02-10T22:12:40.338Z,80.03
2019-02-10T22:15:10.145Z,79.24
2019-02-10T22:17:38.373Z,79.14
2019-02-10T22:20:11.594Z,78.37
2019-02-10T22:22:39.883Z,77.84
2019-02-10T22:25:12.053Z,77.78
2019-02-10T22:27:40.536Z,77.66
2019-02-10T22:30:14.591Z,78.12
2019-02-10T22:32:42.820Z,78.12
2019-02-10T22:35:11.305Z,77.94
2019-02-10T22:37:39.537Z,77.94
2019-02-10T22:40:10.432Z,76.83
2019-02-10T22:42:45.530Z,77.03
2019-02-10T22:45:11.172Z,77.65
2019-02-10T22:47:39.403Z,77.12
2019-02-10T22:50:10.550Z,77.52
2019-02-10T22:52:38.793Z,78.46
2019-02-10T22:55:07.264Z,78.22
2019-02-10T22:57:35.718Z,78.79
2019-02-10T23:00:14.528Z,78.83
2019-02-10T23:02:42.998Z,79.02
2019-02-10T23:05:11.232Z,79.02
2019-02-10T23:07:39.451Z,78.41
2019-02-10T23:10:07.687Z,80.82
2019-02-10T23:12:35.916Z,79.49
2019-02-10T23:15:05.312Z,79.18
2019-02-10T23:17:33.519Z,79.83
2019-02-10T23:20:02.037Z,80.55
2019-02-10T23:22:30.265Z,80.50
2019-02-10T23:24:58.504Z,79.65
2019-02-10T23:27:26.744Z,80.16
2019-02-10T23:29:54.981Z,79.81
2019-02-10T23:32:23.211Z,81.43
2019-02-10T23:34:51.453Z,80.16
2019-02-10T23:37:19.923Z,80.16
2019-02-10T23:39:48.559Z,80.52
2019-02-10T23:42:17.036Z,81.17
2019-02-10T23:44:45.262Z,80.65
2019-02-10T23:47:13.723Z,80.25
2019-02-10T23:49:41.966Z,80.70
2019-02-10T23:52:10.203Z,80.02
2019-02-10T23:54:38.663Z,81.10
2019-02-10T23:57:07.165Z,80.57
2019-02-10T23:59:35.410Z,81.29
